M I D A S
Marine Information and Data Acquisition System
Tripno 999 of the Zeeleeuw from 2005-07-19 09:09:39 to 2005-07-19 12:50:50
Back to CruiseResearch ActivitiesStationsMapUnderway DataData graphs

EquipmentUnitsComment
TimeDGPSUTC
LatitudeDGPSDM.mWGS84
LongitudeDGPSDM.mWGS84
HeadingGyrodeg 
SOGDGPSknotsSpeed over ground
COGDGPSdegCourse over ground
DepthEcho soundermeters200 kHz
Missing or incorrect values are displayed as -999
Navigation data collected by the RV Zeeleeuw from 2005-07-19 09:11:16 to 2005-07-19 12:57:17
                                                                                    Next 1000 lines
Time Latitude Longitude Heading SOG COG Depth
2005-07-19 09:11:27 51°13.622 2°56.052 121.3 0.1 188 10.5
2005-07-19 09:11:32 51°13.622 2°56.052 119.5 0.2 190 10.5
2005-07-19 09:11:36 51°13.622 2°56.052 117 0.2 190 10.5
2005-07-19 09:11:42 51°13.621 2°56.052 115.4 0.2 190 10.6
2005-07-19 09:11:47 51°13.621 2°56.052 113.6 0.2 188 10.5
2005-07-19 09:11:52 51°13.621 2°56.052 111.8 0.2 188 10.6
2005-07-19 09:11:57 51°13.621 2°56.051 110.3 0.2 188 10.6
2005-07-19 09:12:02 51°13.621 2°56.049 109.5 0.7 285 10.6
2005-07-19 09:12:07 51°13.622 2°56.046 109.3 1 284 10.6
2005-07-19 09:12:12 51°13.623 2°56.042 109.3 1 284 10.8
2005-07-19 09:12:17 51°13.623 2°56.037 109.5 2.2 288 11
2005-07-19 09:12:23 51°13.625 2°56.031 110.2 2.3 289 -999
2005-07-19 09:12:27 51°13.626 2°56.025 111 2.7 290 -999
2005-07-19 09:12:33 51°13.628 2°56.017 111.8 3 292 -999
2005-07-19 09:12:37 51°13.63 2°56.011 112.1 3.5 292 -999
2005-07-19 09:12:43 51°13.632 2°56.002 112 3.6 292 -999
2005-07-19 09:12:48 51°13.634 2°55.994 111.4 3.9 290 -999
2005-07-19 09:12:52 51°13.635 2°55.987 111 4.1 289 -999
2005-07-19 09:12:58 51°13.638 2°55.976 110.7 4.2 288 -999
2005-07-19 09:13:02 51°13.639 2°55.969 111 4.4 288 -999
2005-07-19 09:13:08 51°13.641 2°55.958 111.5 4.4 289 6.2
2005-07-19 09:13:12 51°13.643 2°55.95 112.5 4.4 288 -999
2005-07-19 09:13:17 51°13.645 2°55.94 114.3 4.4 289 6.2
2005-07-19 09:13:23 51°13.648 2°55.93 115.6 4.4 290 -999
2005-07-19 09:13:28 51°13.65 2°55.92 116.8 4.6 291 -999
2005-07-19 09:13:32 51°13.652 2°55.912 117.7 4.6 291 -999
2005-07-19 09:13:37 51°13.655 2°55.902 118.7 4.6 294 -999
2005-07-19 09:13:42 51°13.658 2°55.894 119.9 4.6 296 -999
2005-07-19 09:13:48 51°13.661 2°55.883 121.2 4.6 297 -999
2005-07-19 09:13:53 51°13.664 2°55.874 122.6 4.7 298 -999
2005-07-19 09:13:58 51°13.668 2°55.865 123.3 4.7 298 -999
2005-07-19 09:14:03 51°13.671 2°55.856 124 4.7 300 -999
2005-07-19 09:14:08 51°13.675 2°55.847 125 4.7 300 6.4
2005-07-19 09:14:12 51°13.678 2°55.839 126.1 4.7 300 -999
2005-07-19 09:14:17 51°13.682 2°55.829 127.1 5 304 -999
2005-07-19 09:14:21 51°13.686 2°55.822 128.2 5.2 305 -999
2005-07-19 09:14:28 51°13.691 2°55.809 129.2 5.3 305 -999
2005-07-19 09:14:32 51°13.695 2°55.802 130.2 5.3 305 -999
2005-07-19 09:14:37 51°13.7 2°55.792 132.2 5.3 307 -999
2005-07-19 09:14:42 51°13.704 2°55.783 133.9 5.3 311 5
2005-07-19 09:14:48 51°13.71 2°55.773 136.2 5.3 310 -999
2005-07-19 09:14:53 51°13.715 2°55.765 137.9 5.3 313 -999
2005-07-19 09:14:57 51°13.72 2°55.757 140 5.3 314 -999
2005-07-19 09:15:02 51°13.725 2°55.749 141.4 5.3 314 -999
2005-07-19 09:15:08 51°13.731 2°55.74 142.9 5.3 314 -999
2005-07-19 09:15:12 51°13.736 2°55.733 144.1 5.4 316 -999
2005-07-19 09:15:18 51°13.743 2°55.725 145.9 5.4 319 -999
2005-07-19 09:15:23 51°13.748 2°55.717 147.5 5.3 322 -999
2005-07-19 09:15:28 51°13.754 2°55.711 149.7 5.3 324 -999
2005-07-19 09:15:32 51°13.759 2°55.706 150.9 5.3 324 -999
2005-07-19 09:15:38 51°13.767 2°55.698 152.1 5.2 327 -999
2005-07-19 09:15:41 51°13.771 2°55.694 153.4 5.2 329 -999
2005-07-19 09:15:48 51°13.779 2°55.686 154.5 5.3 330 -999
2005-07-19 09:15:53 51°13.786 2°55.681 156 5.3 331 -999
2005-07-19 09:15:57 51°13.792 2°55.676 157.7 5.3 333 -999
2005-07-19 09:16:03 51°13.8 2°55.671 159.7 5.5 336 -999
2005-07-19 09:16:08 51°13.807 2°55.667 161.6 5.6 338 -999
2005-07-19 09:16:12 51°13.813 2°55.663 162.8 5.7 339 -999
2005-07-19 09:16:18 51°13.822 2°55.658 163.9 5.7 339 -999
2005-07-19 09:16:21 51°13.827 2°55.655 165.1 5.5 341 -999
2005-07-19 09:16:28 51°13.836 2°55.65 166.2 5.4 341 6.2
2005-07-19 09:16:33 51°13.843 2°55.647 167.6 5.3 344 6.4
2005-07-19 09:16:37 51°13.849 2°55.645 169.3 5.2 345 -999
2005-07-19 09:16:42 51°13.855 2°55.643 172 5 347 -999
2005-07-19 09:16:48 51°13.863 2°55.641 175.4 4.9 349 -999
2005-07-19 09:16:52 51°13.869 2°55.64 177.9 5 353 -999
2005-07-19 09:16:57 51°13.876 2°55.639 180.9 4.9 356 -999
2005-07-19 09:17:03 51°13.884 2°55.639 183.6 5 -999 -999
2005-07-19 09:17:08 51°13.89 2°55.64 185.8 4.9 2 -999
2005-07-19 09:17:13 51°13.898 2°55.641 188.5 4.9 2 -999
2005-07-19 09:17:17 51°13.903 2°55.643 191.2 4.9 2 6.4
2005-07-19 09:17:22 51°13.91 2°55.644 194.5 4.5 10 -999
2005-07-19 09:17:28 51°13.916 2°55.647 196.3 4.2 13 -999
2005-07-19 09:17:32 51°13.92 2°55.648 198.1 4.1 13 -999
2005-07-19 09:17:37 51°13.926 2°55.65 199.3 3.8 14 12.5
2005-07-19 09:17:42 51°13.93 2°55.652 200.3 3.7 15 12.5
2005-07-19 09:17:47 51°13.935 2°55.655 201.3 3.7 15 12.9
2005-07-19 09:17:52 51°13.939 2°55.657 202.6 3.7 15 13.1
2005-07-19 09:17:57 51°13.943 2°55.659 203.9 3.1 18 13.6
2005-07-19 09:18:01 51°13.945 2°55.661 205.2 2.6 20 13.7
2005-07-19 09:18:07 51°13.948 2°55.662 206.9 2.2 20 13.7
2005-07-19 09:18:12 51°13.949 2°55.663 209.2 1.3 21 13.8
2005-07-19 09:18:17 51°13.95 2°55.664 212.4 1.3 21 13.7
2005-07-19 09:18:21 51°13.95 2°55.664 215.9 0.6 8 13.7
2005-07-19 09:18:27 51°13.95 2°55.663 219.3 0.2 324 13.6
2005-07-19 09:18:32 51°13.95 2°55.662 223.9 0.5 259 13.7
2005-07-19 09:18:37 51°13.95 2°55.659 228.9 0.8 245 13.8
2005-07-19 09:18:41 51°13.949 2°55.658 234 0.9 245 13.8
2005-07-19 09:18:48 51°13.949 2°55.654 239.5 0.8 250 13.9
2005-07-19 09:18:52 51°13.948 2°55.652 245 1.3 253 14
2005-07-19 09:18:57 51°13.948 2°55.648 250.5 1.3 253 14.1
2005-07-19 09:19:01 51°13.947 2°55.645 256.1 1.7 264 13.8
2005-07-19 09:19:08 51°13.947 2°55.64 261.7 1.7 264 13.8
2005-07-19 09:19:12 51°13.947 2°55.636 267.3 1.9 271 13.9
2005-07-19 09:19:17 51°13.948 2°55.631 272.8 1.9 271 14
2005-07-19 09:19:21 51°13.949 2°55.628 277.9 1.9 271 13.8
2005-07-19 09:19:27 51°13.95 2°55.622 283 2.2 287 13.9
2005-07-19 09:19:32 51°13.952 2°55.616 288 2.7 292 13.8
2005-07-19 09:19:37 51°13.954 2°55.608 294.6 2.7 292 14.1
2005-07-19 09:19:42 51°13.957 2°55.602 302.8 3.9 303 13.9
2005-07-19 09:19:48 51°13.963 2°55.593 309.4 4.6 313 14
2005-07-19 09:19:52 51°13.968 2°55.586 316.3 4.6 313 14.1
2005-07-19 09:19:57 51°13.974 2°55.577 319.3 5.6 317 13.2
2005-07-19 09:20:03 51°13.982 2°55.567 321.3 5.6 317 13
2005-07-19 09:20:07 51°13.989 2°55.558 322.7 6.8 322 12.8
2005-07-19 09:20:12 51°13.996 2°55.55 324.2 6.8 322 13.1
2005-07-19 09:20:17 51°14.006 2°55.539 325.8 7.6 325 13.5
2005-07-19 09:20:22 51°14.014 2°55.53 328 7.7 326 13.6
2005-07-19 09:20:27 51°14.025 2°55.52 330.3 7.7 326 12.9
2005-07-19 09:20:32 51°14.034 2°55.51 331.6 8.3 329 13.4
2005-07-19 09:20:37 51°14.046 2°55.499 331.6 8.3 329 13.2
2005-07-19 09:20:42 51°14.055 2°55.49 331.6 8.8 328 12.7
2005-07-19 09:20:48 51°14.069 2°55.478 332.9 9.1 330 12.8
2005-07-19 09:20:52 51°14.078 2°55.469 333.8 9.1 330 12.9
2005-07-19 09:20:57 51°14.09 2°55.458 334.5 9.4 330 12.8
2005-07-19 09:21:01 51°14.1 2°55.45 335.8 9.4 332 12.7
2005-07-19 09:21:08 51°14.115 2°55.437 336.3 9.4 332 12.6
2005-07-19 09:21:12 51°14.124 2°55.429 336.6 9.7 332 12.8
2005-07-19 09:21:17 51°14.137 2°55.417 335.8 9.8 331 13
2005-07-19 09:21:22 51°14.148 2°55.407 335.2 9.9 330 13.5
2005-07-19 09:21:27 51°14.161 2°55.394 334.7 10 330 13.2
2005-07-19 09:21:32 51°14.172 2°55.383 333 10 330 12.9
2005-07-19 09:21:37 51°14.184 2°55.368 330.2 10.1 324 13.1
2005-07-19 09:21:42 51°14.194 2°55.356 328.7 10.1 324 13.5
2005-07-19 09:21:47 51°14.207 2°55.342 328.5 10.1 324 13.2
2005-07-19 09:21:52 51°14.217 2°55.329 327.8 10.1 324 13.3
2005-07-19 09:21:57 51°14.229 2°55.313 326.3 10.1 324 13.3
2005-07-19 09:22:01 51°14.237 2°55.301 323.5 10.2 319 13.6
2005-07-19 09:22:07 51°14.249 2°55.285 323.2 10.2 319 13.3
2005-07-19 09:22:12 51°14.259 2°55.269 321.7 10.2 319 13.3
2005-07-19 09:22:17 51°14.27 2°55.251 319.5 10.2 319 13.3
2005-07-19 09:22:22 51°14.279 2°55.236 318.6 10.4 314 13.1
2005-07-19 09:22:27 51°14.29 2°55.217 317.9 10.4 314 13.1
2005-07-19 09:22:32 51°14.299 2°55.201 316.8 10.8 313 13.2
2005-07-19 09:22:37 51°14.309 2°55.182 315.9 11 312 13.1
2005-07-19 09:22:41 51°14.318 2°55.164 313.9 11.3 309 13.2
2005-07-19 09:22:47 51°14.33 2°55.14 312.4 11.5 309 12.9
2005-07-19 09:22:52 51°14.339 2°55.122 312.4 11.7 309 12.9
2005-07-19 09:22:57 51°14.35 2°55.103 313 11.7 309 12.9
2005-07-19 09:23:01 51°14.36 2°55.085 314.2 11.9 312 13
2005-07-19 09:23:08 51°14.376 2°55.062 315.6 11.9 312 12.8
2005-07-19 09:23:12 51°14.389 2°55.049 318 11.9 312 13.1
2005-07-19 09:23:17 51°14.404 2°55.037 323.3 12.1 328 13
2005-07-19 09:23:21 51°14.417 2°55.029 330.5 12.2 335 12.9
2005-07-19 09:23:28 51°14.438 2°55.018 336.2 12.3 339 12.8
2005-07-19 09:23:32 51°14.452 2°55.012 339.1 12.5 343 12.8
2005-07-19 09:23:37 51°14.47 2°55.003 339.7 12.5 343 12.7
2005-07-19 09:23:41 51°14.484 2°54.997 339.8 12.9 344 12.6
2005-07-19 09:23:47 51°14.504 2°54.987 340 13.1 344 12.5
2005-07-19 09:23:52 51°14.521 2°54.979 339.6 13.1 344 12.4
2005-07-19 09:23:57 51°14.541 2°54.969 338.9 13.2 343 12.2
2005-07-19 09:24:01 51°14.555 2°54.961 338.4 13.3 342 12.3
2005-07-19 09:24:07 51°14.576 2°54.949 337.5 13.4 340 12.3
2005-07-19 09:24:12 51°14.593 2°54.939 337.5 13.4 340 12.3
2005-07-19 09:24:17 51°14.61 2°54.929 337.2 13.4 340 12.2
2005-07-19 09:24:21 51°14.624 2°54.921 337.6 13.4 340 12.2
2005-07-19 09:24:27 51°14.644 2°54.909 337.5 13.4 340 12.3
2005-07-19 09:24:32 51°14.663 2°54.9 337.5 13.3 340 11.9
2005-07-19 09:24:37 51°14.679 2°54.892 338.8 12.9 343 12.2
2005-07-19 09:24:41 51°14.693 2°54.886 338.9 12.7 342 12
2005-07-19 09:24:47 51°14.713 2°54.876 338.9 12.4 343 12.1
2005-07-19 09:24:52 51°14.727 2°54.869 339 12.4 343 12.3
2005-07-19 09:24:57 51°14.745 2°54.86 338.8 12.4 343 11.9
2005-07-19 09:25:02 51°14.761 2°54.852 338.6 12.1 343 11.8
2005-07-19 09:25:07 51°14.775 2°54.845 338.5 11.9 343 12
2005-07-19 09:25:12 51°14.791 2°54.838 338.3 12 343 11.8
2005-07-19 09:25:16 51°14.803 2°54.831 338.7 11.9 343 11.8
2005-07-19 09:25:22 51°14.824 2°54.821 338.9 11.9 343 11.7
2005-07-19 09:25:27 51°14.84 2°54.814 338.9 11.9 343 11.9
2005-07-19 09:25:32 51°14.855 2°54.806 338.6 11.9 343 11.9
2005-07-19 09:25:37 51°14.871 2°54.798 337.9 11.9 343 11.7
2005-07-19 09:25:41 51°14.883 2°54.792 338.1 11.7 342 11.8
2005-07-19 09:25:47 51°14.901 2°54.782 338.2 11.8 342 11.8
2005-07-19 09:25:52 51°14.918 2°54.774 338.1 11.7 342 11.6
2005-07-19 09:25:56 51°14.929 2°54.768 338.1 11.6 343 11.5
2005-07-19 09:26:02 51°14.948 2°54.759 338.5 11.6 343 11.5
2005-07-19 09:26:07 51°14.964 2°54.752 338.5 11.7 343 11.5
2005-07-19 09:26:12 51°14.979 2°54.744 338.5 11.6 343 11.3
2005-07-19 09:26:17 51°14.994 2°54.737 338.9 11.7 343 11.6
2005-07-19 09:26:22 51°15.01 2°54.729 338.9 11.6 343 11.3
2005-07-19 09:26:27 51°15.025 2°54.723 339 11.6 343 11.3
2005-07-19 09:26:32 51°15.039 2°54.716 338.9 11.5 343 11.1
2005-07-19 09:26:37 51°15.056 2°54.707 339.2 11.5 343 11.1
2005-07-19 09:26:41 51°15.069 2°54.701 338.9 11.5 343 11
2005-07-19 09:26:47 51°15.086 2°54.692 338.6 11.6 342 11
2005-07-19 09:26:52 51°15.1 2°54.686 338.4 11.6 342 11
2005-07-19 09:26:57 51°15.118 2°54.677 338.9 11.6 342 10.8
2005-07-19 09:27:02 51°15.133 2°54.669 339.5 11.6 344 11.1
2005-07-19 09:27:07 51°15.149 2°54.662 339.4 11.5 343 10.9
2005-07-19 09:27:12 51°15.162 2°54.656 339.3 11.5 343 11.1
2005-07-19 09:27:16 51°15.177 2°54.649 339.5 11.5 343 10.9
2005-07-19 09:27:22 51°15.195 2°54.639 339.6 11.7 343 11
2005-07-19 09:27:27 51°15.211 2°54.633 339.5 11.7 343 11.2
2005-07-19 09:27:32 51°15.225 2°54.626 340 11.7 344 11.2
2005-07-19 09:27:37 51°15.242 2°54.619 340.6 11.7 344 11.1
2005-07-19 09:27:42 51°15.258 2°54.613 341.8 11.7 344 11.3
2005-07-19 09:27:47 51°15.274 2°54.606 342.9 11.8 346 11.3
2005-07-19 09:27:52 51°15.29 2°54.6 342.7 11.8 346 11.4
2005-07-19 09:27:57 51°15.306 2°54.593 342.5 11.8 346 11.6
2005-07-19 09:28:02 51°15.322 2°54.587 342.7 11.9 345 11.6
2005-07-19 09:28:07 51°15.338 2°54.581 343.3 11.8 346 11.7
2005-07-19 09:28:12 51°15.352 2°54.576 343 11.9 346 11.8
2005-07-19 09:28:16 51°15.367 2°54.57 343.1 11.8 347 11.6
2005-07-19 09:28:22 51°15.386 2°54.564 343.7 11.9 348 11.9
2005-07-19 09:28:27 51°15.403 2°54.559 343.3 11.8 348 11.7
2005-07-19 09:28:32 51°15.417 2°54.552 344.5 11.8 347 11.8
2005-07-19 09:28:37 51°15.434 2°54.547 343.4 11.8 347 11.8
2005-07-19 09:28:41 51°15.447 2°54.541 343.6 11.8 347 12
2005-07-19 09:28:47 51°15.465 2°54.535 343.3 11.9 347 12
2005-07-19 09:28:52 51°15.483 2°54.529 342.9 11.9 347 12
2005-07-19 09:28:57 51°15.499 2°54.522 343.7 11.9 347 12.1
2005-07-19 09:29:02 51°15.515 2°54.516 342.8 12 346 12.2
2005-07-19 09:29:07 51°15.531 2°54.51 343.3 12 347 12.4
2005-07-19 09:29:12 51°15.546 2°54.504 343 12 346 12.4
2005-07-19 09:29:17 51°15.564 2°54.497 343.4 11.9 346 12.3
2005-07-19 09:29:22 51°15.58 2°54.491 343.7 12 347 12.4
2005-07-19 09:29:27 51°15.597 2°54.485 343.3 12 346 12.5
2005-07-19 09:29:32 51°15.611 2°54.479 343.3 12.1 347 12.6
2005-07-19 09:29:37 51°15.63 2°54.473 342.9 12 347 12.5
2005-07-19 09:29:41 51°15.642 2°54.468 343.3 12 347 12.6
2005-07-19 09:29:47 51°15.662 2°54.462 343.5 12.1 348 12.9
2005-07-19 09:29:52 51°15.676 2°54.456 343.4 12 348 12.5
2005-07-19 09:29:57 51°15.693 2°54.452 344 11.5 349 12.8
2005-07-19 09:30:02 51°15.708 2°54.448 344.2 11.5 349 12.7
2005-07-19 09:30:07 51°15.723 2°54.444 344.2 10.6 350 12.5
2005-07-19 09:30:12 51°15.736 2°54.44 343.6 10.2 350 12.7
2005-07-19 09:30:16 51°15.746 2°54.437 344.6 10.1 350 12.7
2005-07-19 09:30:21 51°15.76 2°54.434 343.9 9.8 350 12.7
2005-07-19 09:30:28 51°15.777 2°54.428 343.4 9.6 349 12.9
2005-07-19 09:30:32 51°15.788 2°54.425 342.9 9.7 348 13.1
2005-07-19 09:30:37 51°15.803 2°54.42 342.8 9.6 349 13.2
2005-07-19 09:30:41 51°15.813 2°54.417 342.5 9.6 349 13.3
2005-07-19 09:30:47 51°15.829 2°54.412 342.6 9.6 349 13.5
2005-07-19 09:30:52 51°15.841 2°54.408 342.5 9.6 350 13.5
2005-07-19 09:30:56 51°15.851 2°54.405 342.3 9.7 349 13.4
2005-07-19 09:31:01 51°15.864 2°54.401 342.5 9.7 349 13.5
2005-07-19 09:31:07 51°15.881 2°54.397 342.8 9.7 349 13.6
2005-07-19 09:31:12 51°15.894 2°54.394 343.3 9.5 351 13.6
2005-07-19 09:31:17 51°15.906 2°54.39 343.8 9.4 349 13.5
2005-07-19 09:31:22 51°15.919 2°54.386 343.4 9.4 349 13.6
2005-07-19 09:31:27 51°15.932 2°54.382 342.9 9.5 349 13.7
2005-07-19 09:31:32 51°15.943 2°54.379 342.5 9.5 349 13.7
2005-07-19 09:31:37 51°15.956 2°54.375 342.6 8.9 350 13.8
2005-07-19 09:31:42 51°15.968 2°54.372 342.5 8.7 349 13.9
2005-07-19 09:31:47 51°15.979 2°54.369 342.2 8.1 351 13.8
2005-07-19 09:31:52 51°15.988 2°54.367 341.8 7.9 352 13.8
2005-07-19 09:31:57 51°16 2°54.365 342.5 7.5 353 13.7
2005-07-19 09:32:01 51°16.008 2°54.363 342.6 7.5 353 13.7
2005-07-19 09:32:07 51°16.019 2°54.361 342.5 7.1 353 13.8
2005-07-19 09:32:12 51°16.029 2°54.361 342.3 7.1 353 13.9
2005-07-19 09:32:17 51°16.038 2°54.359 342.2 6.5 355 13.7
2005-07-19 09:32:22 51°16.045 2°54.358 342.6 6.3 356 13.8
2005-07-19 09:32:27 51°16.055 2°54.357 342.9 6 357 13.8
2005-07-19 09:32:32 51°16.062 2°54.357 342.4 6 357 13.8
2005-07-19 09:32:37 51°16.071 2°54.356 342 5.7 358 13.8
2005-07-19 09:32:42 51°16.078 2°54.355 341.8 5.7 358 13.8
2005-07-19 09:32:47 51°16.085 2°54.355 340.9 5.7 358 14.1
2005-07-19 09:32:52 51°16.093 2°54.356 340.9 5.7 358 13.9
2005-07-19 09:32:57 51°16.099 2°54.357 340.7 5 5 13.6
2005-07-19 09:33:02 51°16.107 2°54.357 342.6 5 5 13.7
2005-07-19 09:33:07 51°16.114 2°54.359 343.8 4.8 5 14
2005-07-19 09:33:12 51°16.119 2°54.359 344.2 4.8 5 14.1
2005-07-19 09:33:17 51°16.127 2°54.36 343.3 4.8 5 14.2
2005-07-19 09:33:22 51°16.133 2°54.36 342.4 4.8 5 14.2
2005-07-19 09:33:27 51°16.139 2°54.36 340.9 4.7 2 14.4
2005-07-19 09:33:32 51°16.146 2°54.36 340 4.7 2 14.3
2005-07-19 09:33:37 51°16.153 2°54.36 339.5 4.7 2 14.3
2005-07-19 09:33:41 51°16.158 2°54.36 338.9 4.6 359 14.4
2005-07-19 09:33:47 51°16.165 2°54.36 338 4.5 -999 14.3
2005-07-19 09:33:52 51°16.171 2°54.36 336.9 4.5 -999 14.2
2005-07-19 09:33:57 51°16.177 2°54.359 335.8 4.4 359 14.1
2005-07-19 09:34:02 51°16.182 2°54.36 334.8 4.1 358 14
2005-07-19 09:34:07 51°16.188 2°54.359 334.1 4 1 14
2005-07-19 09:34:12 51°16.193 2°54.359 333 4 1 14
2005-07-19 09:34:17 51°16.198 2°54.359 331.8 3.5 1 14.1
2005-07-19 09:34:22 51°16.202 2°54.359 329.9 3.4 -999 14.2
2005-07-19 09:34:27 51°16.207 2°54.359 328.3 3.3 1 14.2
2005-07-19 09:34:32 51°16.211 2°54.359 326.5 3.2 -999 14.3
2005-07-19 09:34:37 51°16.215 2°54.36 325.6 3.1 1 14.3
2005-07-19 09:34:41 51°16.218 2°54.36 323.5 2.9 2 14.3
2005-07-19 09:34:47 51°16.223 2°54.361 322 2.9 1 14.2
2005-07-19 09:34:52 51°16.227 2°54.362 319.9 2.9 1 14
2005-07-19 09:34:57 51°16.23 2°54.362 318.6 2.5 10 13.8
2005-07-19 09:35:01 51°16.233 2°54.363 317.9 2.5 10 13.8
2005-07-19 09:35:07 51°16.236 2°54.365 316.5 2.3 14 13.7
2005-07-19 09:35:12 51°16.239 2°54.366 315 2.3 12 13.9
2005-07-19 09:35:17 51°16.242 2°54.368 313.5 2.3 15 14
2005-07-19 09:35:21 51°16.245 2°54.369 312.4 2.2 15 14
2005-07-19 09:35:27 51°16.248 2°54.371 311.2 2.1 19 14.2
2005-07-19 09:35:32 51°16.25 2°54.372 309.4 2 22 14.2
2005-07-19 09:35:37 51°16.253 2°54.374 308.1 2.1 18 14.2
2005-07-19 09:35:42 51°16.255 2°54.375 307 2.1 18 14.2
2005-07-19 09:35:47 51°16.258 2°54.376 305.4 2 17 14.1
2005-07-19 09:35:51 51°16.261 2°54.377 304 2 15 14.2
2005-07-19 09:35:57 51°16.263 2°54.378 301.7 1.9 10 14.3
2005-07-19 09:36:01 51°16.266 2°54.378 299.7 1.8 11 14.3
2005-07-19 09:36:07 51°16.268 2°54.379 297.7 1.9 9 14.2
2005-07-19 09:36:12 51°16.27 2°54.38 296.1 1.6 12 14.2
2005-07-19 09:36:17 51°16.272 2°54.38 293.3 1.6 9 14.1
2005-07-19 09:36:21 51°16.274 2°54.38 289.1 1.4 4 14.2
2005-07-19 09:36:27 51°16.276 2°54.38 285.7 1.5 5 14.2
2005-07-19 09:36:32 51°16.278 2°54.379 281.9 1.2 3 14.2
2005-07-19 09:36:37 51°16.279 2°54.38 278.6 1.2 3 14.1
2005-07-19 09:36:42 51°16.28 2°54.38 274.3 1.2 3 14.1
2005-07-19 09:36:47 51°16.281 2°54.38 269.7 0.8 3 14.1
2005-07-19 09:36:52 51°16.282 2°54.38 264.8 0.8 3 14.2
2005-07-19 09:36:57 51°16.282 2°54.38 259.8 0.8 3 14.2
2005-07-19 09:37:02 51°16.282 2°54.38 254.6 0.4 358 14.1
2005-07-19 09:37:07 51°16.282 2°54.379 249 0.1 209 14.1
2005-07-19 09:37:12 51°16.282 2°54.379 244.9 0.1 223 14.1
2005-07-19 09:37:16 51°16.281 2°54.379 241.1 0.3 207 14.1
2005-07-19 09:37:22 51°16.28 2°54.378 238.9 0.5 212 14.1
2005-07-19 09:37:27 51°16.279 2°54.378 237 0.7 193 14.2
2005-07-19 09:37:32 51°16.278 2°54.378 235.5 0.6 210 14
2005-07-19 09:37:37 51°16.277 2°54.377 234 0.7 197 14
2005-07-19 09:37:41 51°16.276 2°54.377 232.7 0.7 197 14
2005-07-19 09:37:47 51°16.274 2°54.376 232 1 203 14
2005-07-19 09:37:52 51°16.273 2°54.375 231.5 1.1 194 14
2005-07-19 09:37:57 51°16.271 2°54.374 231.4 1 208 13.8
2005-07-19 09:38:02 51°16.269 2°54.373 231.4 1 208 13.7
2005-07-19 09:38:07 51°16.268 2°54.372 231.6 1.1 205 13.6
2005-07-19 09:38:12 51°16.267 2°54.371 233.5 1.1 209 13.8
2005-07-19 09:38:17 51°16.266 2°54.369 236.4 1.1 220 13.9
2005-07-19 09:38:22 51°16.265 2°54.367 239.9 1.1 220 14
2005-07-19 09:38:27 51°16.264 2°54.365 243.4 1 234 14.1
2005-07-19 09:38:32 51°16.264 2°54.363 247.3 1 240 14.2
2005-07-19 09:38:37 51°16.263 2°54.361 251 1 249 14.3
2005-07-19 09:38:41 51°16.263 2°54.359 254.3 1 254 14.2
2005-07-19 09:38:47 51°16.263 2°54.356 256.2 1.1 257 14.1
2005-07-19 09:38:52 51°16.263 2°54.355 257.3 1.1 257 14.2
2005-07-19 09:38:57 51°16.263 2°54.353 257.2 1.1 257 14.2
2005-07-19 09:39:02 51°16.262 2°54.351 256.5 0.8 260 14.1
2005-07-19 09:39:07 51°16.262 2°54.349 256.3 1 269 14.1
2005-07-19 09:39:12 51°16.263 2°54.347 256.8 1 266 14.2
2005-07-19 09:39:16 51°16.263 2°54.345 257.6 1.1 270 14.1
2005-07-19 09:39:21 51°16.262 2°54.342 258.1 1.2 272 14.1
2005-07-19 09:39:27 51°16.262 2°54.339 258.2 1.2 269 14
2005-07-19 09:39:32 51°16.262 2°54.336 257.7 1.3 260 13.9
2005-07-19 09:39:37 51°16.262 2°54.333 256.8 1.3 266 13.9
2005-07-19 09:39:41 51°16.261 2°54.332 255 1 257 14.1
2005-07-19 09:39:47 51°16.261 2°54.33 253 1 243 14.1
2005-07-19 09:39:52 51°16.26 2°54.328 250.4 1 243 14
2005-07-19 09:39:57 51°16.259 2°54.326 246.8 1 243 13.9
2005-07-19 09:40:02 51°16.258 2°54.325 243.1 0.9 230 14
2005-07-19 09:40:07 51°16.257 2°54.324 239.9 0.9 225 14.1
2005-07-19 09:40:12 51°16.256 2°54.323 236.9 0.9 211 14.1
2005-07-19 09:40:17 51°16.255 2°54.323 234.4 0.9 215 14.3
2005-07-19 09:40:21 51°16.254 2°54.321 232.5 0.9 196 14.3
2005-07-19 09:40:27 51°16.253 2°54.321 231.3 0.9 199 14.2
2005-07-19 09:40:32 51°16.252 2°54.32 231.2 0.7 197 14.2
2005-07-19 09:40:37 51°16.251 2°54.319 232.4 0.8 198 14.3
2005-07-19 09:40:41 51°16.25 2°54.319 234.1 0.7 197 14.2
2005-07-19 09:40:47 51°16.249 2°54.319 236.5 0.6 208 14
2005-07-19 09:40:52 51°16.248 2°54.319 238.5 0.4 184 13.9
2005-07-19 09:40:57 51°16.248 2°54.319 240.8 0.3 181 14.1
2005-07-19 09:41:01 51°16.248 2°54.32 243.1 0.3 181 14.1
2005-07-19 09:41:07 51°16.248 2°54.32 246 0.2 161 14.1
2005-07-19 09:41:12 51°16.248 2°54.32 248.4 0.2 161 14.2
2005-07-19 09:41:17 51°16.248 2°54.319 251.3 0.1 308 14.2
2005-07-19 09:41:22 51°16.248 2°54.319 254.3 0.3 345 14.2
2005-07-19 09:41:27 51°16.249 2°54.319 257.1 0.2 340 14.2
2005-07-19 09:41:32 51°16.249 2°54.318 259.8 0.2 340 14.2
2005-07-19 09:41:37 51°16.25 2°54.319 262.2 0.5 341 14.3
2005-07-19 09:41:42 51°16.251 2°54.318 263.8 0.5 341 14.3
2005-07-19 09:41:47 51°16.251 2°54.318 264.6 0.5 336 14.2
2005-07-19 09:41:52 51°16.252 2°54.318 265.2 0.5 336 14.2
2005-07-19 09:41:57 51°16.253 2°54.318 265.5 0.5 340 14.2
2005-07-19 09:42:01 51°16.254 2°54.317 265.4 0.6 352 14.2
2005-07-19 09:42:07 51°16.255 2°54.317 264.6 0.5 341 14.2
2005-07-19 09:42:12 51°16.255 2°54.317 263.7 0.5 341 14.1
2005-07-19 09:42:17 51°16.256 2°54.317 262 0.5 341 14
2005-07-19 09:42:21 51°16.256 2°54.317 259.9 0.4 12 14
2005-07-19 09:42:27 51°16.257 2°54.317 258 0.3 1 14.1
2005-07-19 09:42:32 51°16.257 2°54.317 256.2 0.4 353 14.1
2005-07-19 09:42:37 51°16.258 2°54.316 254.3 0.3 3 14.2
2005-07-19 09:42:41 51°16.258 2°54.316 252.4 0.2 2 14.2
2005-07-19 09:42:47 51°16.258 2°54.316 250.5 0.2 341 14.2
2005-07-19 09:42:52 51°16.258 2°54.316 249.3 0.2 338 14.2
2005-07-19 09:42:57 51°16.258 2°54.316 248.4 0.2 338 14.2
2005-07-19 09:43:02 51°16.259 2°54.316 248 0.1 193 14.3
2005-07-19 09:43:07 51°16.258 2°54.317 248.1 0.1 94 14.1
2005-07-19 09:43:12 51°16.258 2°54.317 248.1 0.1 44 14
2005-07-19 09:43:17 51°16.258 2°54.317 247.9 0.2 77 14
2005-07-19 09:43:21 51°16.258 2°54.318 248.2 0.1 29 14.1
2005-07-19 09:43:27 51°16.258 2°54.317 248.9 0.1 88 14.1
2005-07-19 09:43:32 51°16.259 2°54.318 250 0.1 349 14.2
2005-07-19 09:43:37 51°16.259 2°54.318 251.6 0.1 72 14.2
2005-07-19 09:43:41 51°16.259 2°54.318 253.1 0.1 7 14.1
2005-07-19 09:43:47 51°16.259 2°54.319 254.5 0.3 54 13.9
2005-07-19 09:43:52 51°16.259 2°54.32 255.3 0.4 41 14
2005-07-19 09:43:57 51°16.26 2°54.321 255.4 0.3 49 14.1
2005-07-19 09:44:01 51°16.26 2°54.321 255.4 0.3 49 14.1
2005-07-19 09:44:07 51°16.26 2°54.322 255.4 0.5 54 14.2
2005-07-19 09:44:11 51°16.26 2°54.322 255.4 0.3 56 14.3
2005-07-19 09:44:17 51°16.26 2°54.324 254.6 0.5 73 14.2
2005-07-19 09:44:21 51°16.26 2°54.324 253.6 0.7 53 14
2005-07-19 09:44:27 51°16.261 2°54.326 252.5 0.7 53 14.1
2005-07-19 09:44:32 51°16.261 2°54.327 251.4 0.7 61 13.9
2005-07-19 09:44:37 51°16.262 2°54.329 250.5 0.6 73 14.1
2005-07-19 09:44:41 51°16.262 2°54.329 249.7 0.6 73 14.1
2005-07-19 09:44:47 51°16.262 2°54.33 249.1 0.5 79 14.2
2005-07-19 09:44:51 51°16.262 2°54.331 248.3 0.5 71 14.3
2005-07-19 09:44:57 51°16.263 2°54.333 247.9 0.4 79 14.4
2005-07-19 09:45:01 51°16.263 2°54.333 247.5 0.6 76 14.2
2005-07-19 09:45:07 51°16.263 2°54.335 246.8 0.5 70 14.1
2005-07-19 09:45:11 51°16.263 2°54.336 246.2 0.6 86 14.1
2005-07-19 09:45:17 51°16.263 2°54.337 246 0.5 83 14
2005-07-19 09:45:22 51°16.263 2°54.338 245.3 0.4 81 14
2005-07-19 09:45:27 51°16.263 2°54.339 244.5 0.5 92 14.1
2005-07-19 09:45:32 51°16.263 2°54.34 244.3 0.3 88 14.2
2005-07-19 09:45:37 51°16.263 2°54.34 244.4 0.3 86 14.2
2005-07-19 09:45:41 51°16.263 2°54.341 244.5 0.3 73 14.2
2005-07-19 09:45:47 51°16.263 2°54.342 244.5 0.3 73 14.2
2005-07-19 09:45:52 51°16.263 2°54.342 245.1 0.3 70 14.1
2005-07-19 09:45:57 51°16.263 2°54.343 245.7 0.3 97 14.3
2005-07-19 09:46:01 51°16.263 2°54.343 246.2 0.3 97 14.1
2005-07-19 09:46:07 51°16.263 2°54.344 246.2 0.3 80 14
2005-07-19 09:46:12 51°16.263 2°54.344 246 0.2 86 14
2005-07-19 09:46:17 51°16.263 2°54.345 246 0.2 86 14.1
2005-07-19 09:46:21 51°16.263 2°54.345 246.2 0.2 90 14
2005-07-19 09:46:28 51°16.263 2°54.346 246.6 0.3 63 14.1
2005-07-19 09:46:32 51°16.263 2°54.346 246.8 0.3 57 14.1
2005-07-19 09:46:37 51°16.264 2°54.347 247.2 0.3 91 14.1
2005-07-19 09:46:41 51°16.263 2°54.348 247.7 0.3 91 14.1
2005-07-19 09:46:47 51°16.264 2°54.348 248.2 0.3 34 14
2005-07-19 09:46:52 51°16.264 2°54.348 248.6 0.3 34 14.1
2005-07-19 09:46:57 51°16.264 2°54.348 249.2 0.3 34 14
2005-07-19 09:47:01 51°16.264 2°54.349 249.3 0.2 66 14.1
2005-07-19 09:47:07 51°16.264 2°54.349 249.3 0.1 50 14.2
2005-07-19 09:47:12 51°16.265 2°54.349 249.2 0.2 73 14.3
2005-07-19 09:47:17 51°16.264 2°54.35 248.5 0.2 92 14.2
2005-07-19 09:47:22 51°16.265 2°54.35 247.8 0.2 92 14.2
2005-07-19 09:47:27 51°16.265 2°54.351 245.9 0.2 96 14
2005-07-19 09:47:32 51°16.265 2°54.351 244.5 0.3 94 14
2005-07-19 09:47:37 51°16.264 2°54.352 242.6 0.2 112 14
2005-07-19 09:47:41 51°16.264 2°54.353 241 0.2 105 13.9
2005-07-19 09:47:47 51°16.264 2°54.353 239.7 0.2 105 13.9
2005-07-19 09:47:52 51°16.264 2°54.354 239.1 0.4 106 14
2005-07-19 09:47:57 51°16.263 2°54.355 238.4 0.4 115 14.1
2005-07-19 09:48:02 51°16.263 2°54.356 238.1 0.4 115 14.2
2005-07-19 09:48:07 51°16.263 2°54.356 238.6 0.5 125 14.3
2005-07-19 09:48:12 51°16.262 2°54.357 238.8 0.4 130 14.2
2005-07-19 09:48:17 51°16.262 2°54.358 239.8 0.3 109 14.1
2005-07-19 09:48:21 51°16.262 2°54.359 239.9 0.3 78 14
2005-07-19 09:48:27 51°16.262 2°54.359 241.9 0.3 78 14
2005-07-19 09:48:32 51°16.262 2°54.36 242.6 0.3 107 14.1
2005-07-19 09:48:37 51°16.262 2°54.36 244.4 0.3 111 14.2
2005-07-19 09:48:41 51°16.262 2°54.361 246 0.3 111 14.3
2005-07-19 09:48:47 51°16.262 2°54.362 247.9 0.3 111 14.2
2005-07-19 09:48:51 51°16.262 2°54.362 249.1 0.2 83 14.2
2005-07-19 09:48:57 51°16.262 2°54.363 250.9 0.3 77 14.1
2005-07-19 09:49:01 51°16.263 2°54.364 251.8 0.4 64 14.1
2005-07-19 09:49:07 51°16.263 2°54.365 252.9 0.3 88 14
2005-07-19 09:49:12 51°16.263 2°54.365 254.1 0.2 60 14.1
2005-07-19 09:49:17 51°16.263 2°54.366 255.5 0.4 47 14
2005-07-19 09:49:21 51°16.264 2°54.366 257.2 0.4 47 14.1
2005-07-19 09:49:27 51°16.265 2°54.367 258.7 0.5 50 14.3
2005-07-19 09:49:32 51°16.265 2°54.368 260.3 0.6 39 14.3
2005-07-19 09:49:37 51°16.266 2°54.369 261.9 0.6 37 14.2
2005-07-19 09:49:41 51°16.266 2°54.37 263.2 0.7 43 14.1
2005-07-19 09:49:47 51°16.267 2°54.371 264 0.7 43 14.1
2005-07-19 09:49:52 51°16.267 2°54.372 264.2 0.6 39 14
2005-07-19 09:49:57 51°16.269 2°54.372 264.8 0.8 30 14.1
2005-07-19 09:50:01 51°16.269 2°54.373 265.2 0.6 28 14.1
2005-07-19 09:50:07 51°16.27 2°54.374 265.5 0.6 28 14.1
2005-07-19 09:50:11 51°16.271 2°54.374 265.4 0.7 28 14
2005-07-19 09:50:17 51°16.272 2°54.375 265.5 0.7 24 14.1
2005-07-19 09:50:21 51°16.272 2°54.376 265.2 0.8 31 14
2005-07-19 09:50:27 51°16.274 2°54.377 264.9 0.8 31 14.1
2005-07-19 09:50:32 51°16.274 2°54.377 264.1 0.6 31 14
2005-07-19 09:50:37 51°16.275 2°54.378 263.8 0.6 26 14.1
2005-07-19 09:50:42 51°16.276 2°54.379 263.1 0.6 26 14.3
2005-07-19 09:50:47 51°16.277 2°54.379 262.7 0.4 25 14.2
2005-07-19 09:50:52 51°16.278 2°54.38 261.7 0.8 25 14.2
2005-07-19 09:50:57 51°16.278 2°54.38 260.5 0.6 40 14.2
2005-07-19 09:51:01 51°16.278 2°54.381 260.1 0.6 30 14
2005-07-19 09:51:08 51°16.279 2°54.381 259.2 0.6 30 14.2
2005-07-19 09:51:12 51°16.28 2°54.382 258.7 0.6 36 14.1
2005-07-19 09:51:17 51°16.28 2°54.383 257.6 0.5 43 14.1
2005-07-19 09:51:22 51°16.281 2°54.384 256.7 0.5 43 14.1
2005-07-19 09:51:27 51°16.281 2°54.384 256.3 0.5 45 14.1
2005-07-19 09:51:32 51°16.282 2°54.384 256.3 0.5 38 14.2
2005-07-19 09:51:37 51°16.283 2°54.386 256.5 0.5 42 14.3
2005-07-19 09:51:41 51°16.283 2°54.386 256.6 0.5 34 14.3
2005-07-19 09:51:47 51°16.283 2°54.386 256.3 0.4 35 14.3
2005-07-19 09:51:52 51°16.283 2°54.387 256.5 0.4 35 14.2
2005-07-19 09:51:57 51°16.284 2°54.387 257.2 0.4 10 14.3
2005-07-19 09:52:01 51°16.285 2°54.387 257.3 0.4 10 14.2
2005-07-19 09:52:07 51°16.285 2°54.386 258.2 0.4 350 14.2
2005-07-19 09:52:11 51°16.286 2°54.386 259.1 0.5 341 14.1
2005-07-19 09:52:17 51°16.286 2°54.385 259.8 0.5 337 14.1
2005-07-19 09:52:21 51°16.287 2°54.385 260.6 0.5 337 14.1
2005-07-19 09:52:27 51°16.288 2°54.384 261.6 0.6 330 14.2
2005-07-19 09:52:32 51°16.288 2°54.384 262.8 0.6 334 14.1
2005-07-19 09:52:36 51°16.289 2°54.383 264.2 0.7 330 14.1
2005-07-19 09:52:41 51°16.29 2°54.382 265.4 0.7 330 14.2
2005-07-19 09:52:47 51°16.291 2°54.381 266.6 0.7 330 14.1
2005-07-19 09:52:52 51°16.292 2°54.38 267.7 0.7 330 14.1
2005-07-19 09:52:57 51°16.293 2°54.378 269 0.8 324 13.9
2005-07-19 09:53:01 51°16.294 2°54.377 269.7 0.8 324 13.9
2005-07-19 09:53:07 51°16.295 2°54.375 270.1 0.9 319 14
2005-07-19 09:53:12 51°16.296 2°54.374 270 0.9 319 14
2005-07-19 09:53:16 51°16.297 2°54.374 270.3 0.9 325 14.1
2005-07-19 09:53:21 51°16.298 2°54.372 270.4 0.9 325 14.1
2005-07-19 09:53:28 51°16.299 2°54.371 270.3 0.9 325 14.2
2005-07-19 09:53:32 51°16.3 2°54.369 269.8 0.9 325 14.1
2005-07-19 09:53:37 51°16.301 2°54.367 268.5 0.9 325 14.1
2005-07-19 09:53:41 51°16.301 2°54.366 266.8 1 309 14.1
2005-07-19 09:53:47 51°16.302 2°54.364 265 1 301 14.1
2005-07-19 09:53:52 51°16.302 2°54.362 263.5 1.1 294 14.1
2005-07-19 09:53:57 51°16.303 2°54.359 262.1 1.1 292 14.1
2005-07-19 09:54:02 51°16.303 2°54.357 261.2 1.1 292 14.2
2005-07-19 09:54:07 51°16.304 2°54.354 259.5 1.1 282 14.2
2005-07-19 09:54:12 51°16.304 2°54.351 258 1.1 282 14.2
2005-07-19 09:54:17 51°16.304 2°54.349 256.9 1.2 274 14
2005-07-19 09:54:21 51°16.303 2°54.347 256 1.2 274 14.1
2005-07-19 09:54:27 51°16.303 2°54.343 254.6 1.2 269 14
2005-07-19 09:54:32 51°16.303 2°54.34 253.4 1.2 263 14.1
2005-07-19 09:54:37 51°16.303 2°54.338 252.1 1.2 262 14.1
2005-07-19 09:54:41 51°16.302 2°54.335 251.5 1.2 260 14.1
2005-07-19 09:54:47 51°16.302 2°54.332 250.6 1.3 256 14.1
2005-07-19 09:54:52 51°16.301 2°54.329 249.4 1.3 256 14.2
2005-07-19 09:54:57 51°16.3 2°54.327 248.2 1.4 248 14.2
2005-07-19 09:55:02 51°16.299 2°54.325 247 1.3 246 14.2
2005-07-19 09:55:07 51°16.298 2°54.322 245.7 1.4 235 13.9
2005-07-19 09:55:12 51°16.297 2°54.32 244.4 1.3 234 13.9
2005-07-19 09:55:17 51°16.296 2°54.318 242.7 1.3 231 14
2005-07-19 09:55:21 51°16.295 2°54.316 242 1.4 229 14
2005-07-19 09:55:27 51°16.293 2°54.313 241.5 1.1 225 13.9
2005-07-19 09:55:32 51°16.292 2°54.311 240.8 1.1 225 14
2005-07-19 09:55:37 51°16.291 2°54.31 240.5 1.2 221 14.1
2005-07-19 09:55:41 51°16.29 2°54.309 240.3 1.1 223 14.1
2005-07-19 09:55:47 51°16.289 2°54.307 240.3 1 226 14
2005-07-19 09:55:52 51°16.288 2°54.305 240.7 1 226 14
2005-07-19 09:55:57 51°16.287 2°54.303 241.1 1 226 14.1
2005-07-19 09:56:01 51°16.286 2°54.302 241.9 1 226 14.1
2005-07-19 09:56:07 51°16.285 2°54.3 242.4 0.9 224 14
2005-07-19 09:56:12 51°16.284 2°54.299 242.7 1 221 14.1
2005-07-19 09:56:17 51°16.283 2°54.297 243.2 0.9 228 14.1
2005-07-19 09:56:21 51°16.283 2°54.296 243.8 1 225 14.2
2005-07-19 09:56:27 51°16.282 2°54.294 244.9 0.9 238 14.1
2005-07-19 09:56:32 51°16.281 2°54.293 246.2 0.8 236 14.2
2005-07-19 09:56:37 51°16.281 2°54.291 247.4 0.8 234 14
2005-07-19 09:56:41 51°16.281 2°54.289 248.6 0.9 248 14
2005-07-19 09:56:47 51°16.28 2°54.287 249.1 0.8 252 14
2005-07-19 09:56:52 51°16.279 2°54.285 250.1 0.8 252 14
2005-07-19 09:56:57 51°16.279 2°54.283 251.1 0.9 260 14.1
2005-07-19 09:57:01 51°16.279 2°54.282 252.1 0.9 260 14.3
2005-07-19 09:57:07 51°16.279 2°54.279 253.1 0.9 260 14.2
2005-07-19 09:57:12 51°16.279 2°54.277 254.3 1 265 14.3
2005-07-19 09:57:16 51°16.279 2°54.275 255.5 1 270 14.3
2005-07-19 09:57:22 51°16.279 2°54.272 256.4 1 270 14.3
2005-07-19 09:57:27 51°16.279 2°54.27 257 1 270 14.4
2005-07-19 09:57:32 51°16.279 2°54.268 257.1 1 270 14.3
2005-07-19 09:57:37 51°16.279 2°54.266 256.9 0.9 271 14.2
2005-07-19 09:57:42 51°16.279 2°54.264 256.7 0.9 271 14.2
2005-07-19 09:57:48 51°16.279 2°54.262 256.2 0.9 267 14.1
2005-07-19 09:57:52 51°16.279 2°54.261 255.4 0.9 267 14.2
2005-07-19 09:57:57 51°16.278 2°54.258 254.1 0.8 270 14
2005-07-19 09:58:02 51°16.278 2°54.257 253.3 0.7 259 14
2005-07-19 09:58:07 51°16.278 2°54.255 250.5 0.7 259 13.9
2005-07-19 09:58:12 51°16.277 2°54.254 249.8 0.7 256 13.9
2005-07-19 09:58:17 51°16.277 2°54.252 248 0.6 237 13.9
2005-07-19 09:58:22 51°16.277 2°54.251 246.2 0.6 238 14.1
2005-07-19 09:58:27 51°16.276 2°54.251 244.8 0.6 238 14.1
2005-07-19 09:58:32 51°16.275 2°54.25 243.6 0.7 228 14
2005-07-19 09:58:37 51°16.275 2°54.248 242.5 0.6 221 14
2005-07-19 09:58:42 51°16.274 2°54.248 241.9 0.7 227 14.1
2005-07-19 09:58:47 51°16.273 2°54.247 241.5 0.7 227 14
2005-07-19 09:58:52 51°16.272 2°54.246 241.3 0.6 218 14.1
2005-07-19 09:58:57 51°16.271 2°54.246 240.2 0.6 218 14.1
2005-07-19 09:59:02 51°16.27 2°54.246 239.4 0.6 218 13.9
2005-07-19 09:59:07 51°16.27 2°54.245 238.8 0.6 194 14
2005-07-19 09:59:12 51°16.269 2°54.245 238.5 0.5 179 14
2005-07-19 09:59:17 51°16.269 2°54.245 238.4 0.5 185 14.2
2005-07-19 09:59:22 51°16.268 2°54.245 238 0.5 185 14.2
2005-07-19 09:59:27 51°16.267 2°54.246 237.6 0.5 185 14.2
2005-07-19 09:59:32 51°16.266 2°54.246 236.9 0.5 178 14.1
2005-07-19 09:59:37 51°16.266 2°54.246 236.6 0.5 173 14.2
2005-07-19 09:59:42 51°16.265 2°54.246 237.1 0.5 164 14.3
2005-07-19 09:59:47 51°16.264 2°54.247 237.2 0.5 164 14.3
2005-07-19 09:59:52 51°16.264 2°54.248 237.1 0.5 164 14.4
2005-07-19 09:59:57 51°16.263 2°54.248 237 0.4 151 14.3
2005-07-19 10:00:02 51°16.263 2°54.249 237 0.4 125 14.1
2005-07-19 10:00:07 51°16.262 2°54.25 236.6 0.6 139 14.1
2005-07-19 10:00:12 51°16.262 2°54.251 236.6 0.6 144 14.1
2005-07-19 10:00:17 51°16.261 2°54.252 236.7 0.6 128 14.1
2005-07-19 10:00:22 51°16.261 2°54.252 236.6 0.5 132 14.2
2005-07-19 10:00:28 51°16.26 2°54.254 236.3 0.5 132 14.1
2005-07-19 10:00:32 51°16.26 2°54.255 235.9 0.6 126 14.1
2005-07-19 10:00:37 51°16.259 2°54.256 235.5 0.6 114 14.2
2005-07-19 10:00:42 51°16.259 2°54.257 235 0.6 114 14.3
2005-07-19 10:00:48 51°16.259 2°54.258 234.9 0.6 114 14.3
2005-07-19 10:00:52 51°16.258 2°54.259 235 0.8 118 14.4
2005-07-19 10:00:57 51°16.258 2°54.261 234.8 0.8 118 14.3
2005-07-19 10:01:02 51°16.257 2°54.263 234.7 0.8 118 14.3
2005-07-19 10:01:07 51°16.257 2°54.264 234.7 0.6 107 14.2
2005-07-19 10:01:12 51°16.257 2°54.266 234.8 0.8 115 14.1
2005-07-19 10:01:17 51°16.256 2°54.267 234.4 0.7 110 14.3
2005-07-19 10:01:22 51°16.257 2°54.269 234.2 0.7 110 14.3
2005-07-19 10:01:27 51°16.256 2°54.271 234.4 0.7 110 14.2
2005-07-19 10:01:32 51°16.256 2°54.273 235 0.8 100 14.1
2005-07-19 10:01:37 51°16.256 2°54.275 235.9 0.8 90 14.1
2005-07-19 10:01:42 51°16.256 2°54.277 237 0.8 90 14.1
2005-07-19 10:01:47 51°16.256 2°54.279 238.2 0.7 88 14.1
2005-07-19 10:01:52 51°16.256 2°54.281 239.7 0.7 88 14.2
2005-07-19 10:01:57 51°16.256 2°54.283 241.1 0.9 82 14.1
2005-07-19 10:02:01 51°16.256 2°54.285 241.6 1 80 14
2005-07-19 10:02:07 51°16.257 2°54.287 242.1 1 80 14.1
2005-07-19 10:02:12 51°16.257 2°54.29 242.9 1 80 14.1
2005-07-19 10:02:17 51°16.257 2°54.292 243.2 1 80 14.2
2005-07-19 10:02:22 51°16.258 2°54.295 243.8 1 80 14.2
2005-07-19 10:02:27 51°16.259 2°54.298 244 1.2 72 14.2
2005-07-19 10:02:32 51°16.26 2°54.301 243.7 1.2 74 14.2
2005-07-19 10:02:37 51°16.26 2°54.304 244.1 1.2 74 14.2
2005-07-19 10:02:41 51°16.261 2°54.306 244.7 1.6 70 14.3
2005-07-19 10:02:48 51°16.262 2°54.312 244.3 1.8 73 14.1
2005-07-19 10:02:52 51°16.262 2°54.314 244.4 1.8 67 14
2005-07-19 10:02:57 51°16.263 2°54.318 243.1 1.8 67 13.8
2005-07-19 10:03:02 51°16.263 2°54.321 242.2 1.9 70 13.8
2005-07-19 10:03:07 51°16.264 2°54.325 241.2 1.7 76 14
2005-07-19 10:03:12 51°16.265 2°54.329 240.5 1.8 69 14.1
2005-07-19 10:03:17 51°16.266 2°54.333 240 1.9 70 14.3
2005-07-19 10:03:22 51°16.267 2°54.338 239.7 1.9 70 14.3
2005-07-19 10:03:27 51°16.267 2°54.342 239.3 1.9 69 14.2
2005-07-19 10:03:32 51°16.268 2°54.346 238.4 1.9 69 14.3
2005-07-19 10:03:37 51°16.269 2°54.35 237.3 1.9 69 14.3
2005-07-19 10:03:42 51°16.27 2°54.354 235.9 1.9 69 -999
2005-07-19 10:03:47 51°16.272 2°54.359 234.9 2.2 76 14.2
2005-07-19 10:03:52 51°16.273 2°54.364 233.9 2.3 68 14.1
2005-07-19 10:03:56 51°16.273 2°54.368 232.8 2.3 69 14
2005-07-19 10:04:02 51°16.275 2°54.374 232.3 2.2 67 14.1
2005-07-19 10:04:07 51°16.276 2°54.378 231.6 2.4 66 14.2
2005-07-19 10:04:12 51°16.277 2°54.384 230.2 2.4 72 14.1
2005-07-19 10:04:16 51°16.278 2°54.387 228.3 2.4 62 14.1
2005-07-19 10:04:22 51°16.28 2°54.394 226 2.5 71 14.1
2005-07-19 10:04:27 51°16.281 2°54.399 223.6 2.5 66 14.1
2005-07-19 10:04:32 51°16.283 2°54.403 221.8 2.4 62 14.1
2005-07-19 10:04:37 51°16.284 2°54.409 220.3 2.5 64 14.2
2005-07-19 10:04:42 51°16.286 2°54.414 218.4 2.6 65 14.1
2005-07-19 10:04:47 51°16.287 2°54.419 216.1 2.6 64 14.2
2005-07-19 10:04:52 51°16.289 2°54.424 214.1 2.5 63 14.2
2005-07-19 10:04:57 51°16.291 2°54.429 212.1 2.5 60 14.1
2005-07-19 10:05:01 51°16.292 2°54.433 209.7 2.6 65 14.1
2005-07-19 10:05:07 51°16.295 2°54.44 207.5 2.6 62 14.2
2005-07-19 10:05:12 51°16.297 2°54.445 205.4 2.6 62 14.2
2005-07-19 10:05:17 51°16.299 2°54.451 203.2 2.6 61 14.1
2005-07-19 10:05:22 51°16.3 2°54.456 201.3 2.6 61 14.1
2005-07-19 10:05:27 51°16.302 2°54.461 199.5 2.6 61 14.2
2005-07-19 10:05:32 51°16.303 2°54.466 198.1 2.5 56 14.1
2005-07-19 10:05:37 51°16.305 2°54.471 195.7 2.7 62 14.2
2005-07-19 10:05:41 51°16.307 2°54.474 193.8 2.5 58 14.2
2005-07-19 10:05:47 51°16.309 2°54.48 192.1 2.6 59 14.1
2005-07-19 10:05:52 51°16.31 2°54.484 190 2.6 59 14.2
2005-07-19 10:05:57 51°16.313 2°54.49 187.7 2.5 58 14.2
2005-07-19 10:06:01 51°16.314 2°54.493 185.8 2.5 58 14.2
2005-07-19 10:06:07 51°16.316 2°54.499 184.3 2.5 58 14.3
2005-07-19 10:06:12 51°16.318 2°54.504 183.3 2.5 58 14.3
2005-07-19 10:06:17 51°16.319 2°54.508 181.5 2.5 58 14.3
2005-07-19 10:06:22 51°16.321 2°54.513 180.2 2.6 59 14.3
2005-07-19 10:06:27 51°16.323 2°54.518 178.5 2.4 60 14.2
2005-07-19 10:06:32 51°16.325 2°54.523 176.8 2.7 59 14.2
2005-07-19 10:06:36 51°16.326 2°54.527 174.9 2.6 59 14.1
2005-07-19 10:06:41 51°16.328 2°54.532 173.4 2.6 59 14
2005-07-19 10:06:47 51°16.33 2°54.538 171.9 2.6 59 14
2005-07-19 10:06:52 51°16.332 2°54.542 170.9 2.6 60 14.1
2005-07-19 10:06:57 51°16.334 2°54.547 169.8 2.4 60 14
2005-07-19 10:07:01 51°16.335 2°54.551 168 2.7 60 14.1
2005-07-19 10:07:08 51°16.338 2°54.557 167 2.4 61 14.1
2005-07-19 10:07:12 51°16.338 2°54.561 166 2.6 60 14.1
2005-07-19 10:07:17 51°16.34 2°54.566 165 2.4 61 14.2
2005-07-19 10:07:21 51°16.342 2°54.57 164.1 2.4 62 14.1
2005-07-19 10:07:27 51°16.344 2°54.575 163.3 2.4 60 14.1
2005-07-19 10:07:32 51°16.345 2°54.58 162.5 2.4 62 14.2
2005-07-19 10:07:37 51°16.347 2°54.585 161.4 2.4 62 14.2
2005-07-19 10:07:42 51°16.349 2°54.589 160.8 2.4 62 14.1
2005-07-19 10:07:47 51°16.351 2°54.594 160.4 2.4 62 14.1
2005-07-19 10:07:52 51°16.352 2°54.599 159.7 2.4 62 14.1
2005-07-19 10:07:57 51°16.354 2°54.603 158.9 2.4 63 13.8
2005-07-19 10:08:02 51°16.355 2°54.608 159.1 2.3 62 13.7
2005-07-19 10:08:07 51°16.356 2°54.612 158.9 2.4 62 13.8
2005-07-19 10:08:12 51°16.358 2°54.617 158.7 2.4 62 14
2005-07-19 10:08:17 51°16.36 2°54.622 158.7 2.4 63 13.9
2005-07-19 10:08:22 51°16.361 2°54.627 158.3 2.4 63 13.8
2005-07-19 10:08:27 51°16.363 2°54.631 157.9 2.5 62 13.8
2005-07-19 10:08:32 51°16.364 2°54.635 158.2 2.5 62 13.8
2005-07-19 10:08:37 51°16.366 2°54.64 158.3 2.3 62 13.8
2005-07-19 10:08:42 51°16.368 2°54.645 158.2 2.4 61 13.7
2005-07-19 10:08:47 51°16.369 2°54.65 158.4 2.5 63 13.7
2005-07-19 10:08:52 51°16.371 2°54.655 158.3 2.5 63 13.7
2005-07-19 10:08:57 51°16.372 2°54.659 158.7 2.4 62 13.7
2005-07-19 10:09:02 51°16.373 2°54.664 159.2 2.5 61 13.6
2005-07-19 10:09:07 51°16.375 2°54.669 160.2 2.5 61 13.6
2005-07-19 10:09:12 51°16.377 2°54.674 160.2 2.5 63 13.5
2005-07-19 10:09:17 51°16.378 2°54.678 161.3 2.4 64 13.2
2005-07-19 10:09:22 51°16.38 2°54.683 161.1 2.4 63 13.2
2005-07-19 10:09:27 51°16.381 2°54.688 161.5 2.4 63 13.1
2005-07-19 10:09:32 51°16.383 2°54.693 161.8 2.5 63 13.1
2005-07-19 10:09:37 51°16.384 2°54.698 162.5 2.2 67 13.1
2005-07-19 10:09:42 51°16.385 2°54.702 163.4 2.2 67 13.1
2005-07-19 10:09:47 51°16.386 2°54.708 164.2 2.2 67 13.2
2005-07-19 10:09:52 51°16.385 2°54.712 165.4 2.2 67 13.1
2005-07-19 10:09:57 51°16.385 2°54.718 167.2 2.4 89 13.2
2005-07-19 10:10:02 51°16.385 2°54.723 170.2 2.4 99 13.1
2005-07-19 10:10:07 51°16.384 2°54.728 175.4 2.1 108 13.3
2005-07-19 10:10:12 51°16.382 2°54.732 180.2 2.2 117 13.3
2005-07-19 10:10:17 51°16.38 2°54.736 185 2.1 124 13.1
2005-07-19 10:10:22 51°16.378 2°54.738 189.6 2.2 135 13.2
2005-07-19 10:10:27 51°16.375 2°54.741 194.6 2.1 146 13.4
2005-07-19 10:10:32 51°16.373 2°54.742 198.8 2 152 13.5
2005-07-19 10:10:37 51°16.369 2°54.743 205.4 2.2 161 13.4
2005-07-19 10:10:41 51°16.367 2°54.743 211.4 2.1 171 13.5
2005-07-19 10:10:47 51°16.364 2°54.742 216.9 2.1 186 13.4
2005-07-19 10:10:52 51°16.362 2°54.741 222.5 2.1 186 13.4
2005-07-19 10:10:57 51°16.36 2°54.738 227.1 1.8 209 13.4
2005-07-19 10:11:02 51°16.358 2°54.735 234.5 1.8 209 13.4
2005-07-19 10:11:07 51°16.357 2°54.731 241.5 1.8 209 13.5
2005-07-19 10:11:12 51°16.357 2°54.727 246.9 1.8 209 13.5
2005-07-19 10:11:17 51°16.357 2°54.721 253.5 2.2 267 13.5
2005-07-19 10:11:23 51°16.358 2°54.715 260.2 2.2 267 13.6
2005-07-19 10:11:27 51°16.359 2°54.71 267.5 2.6 294 13.7
2005-07-19 10:11:32 51°16.362 2°54.706 275 2.6 294 13.6
2005-07-19 10:11:37 51°16.365 2°54.701 284.7 2.9 305 13.7
2005-07-19 10:11:42 51°16.368 2°54.696 289.6 3.2 315 13.6
2005-07-19 10:11:48 51°16.373 2°54.69 293.5 3.3 319 13.3
2005-07-19 10:11:52 51°16.376 2°54.687 296.1 3.2 324 13.3
2005-07-19 10:11:57 51°16.379 2°54.683 297.5 3.2 324 13.4
2005-07-19 10:12:01 51°16.382 2°54.68 298.2 3.1 329 13.4
2005-07-19 10:12:07 51°16.387 2°54.676 297.9 3.1 328 13.4
2005-07-19 10:12:12 51°16.39 2°54.673 297.3 3.1 329 13.9
2005-07-19 10:12:16 51°16.393 2°54.67 296.8 2.9 328 13.7
2005-07-19 10:12:21 51°16.397 2°54.667 296.1 2.9 328 13.6
2005-07-19 10:12:27 51°16.401 2°54.663 295.7 2.9 328 13.5
2005-07-19 10:12:32 51°16.404 2°54.661 295.5 2.9 328 13.4
2005-07-19 10:12:37 51°16.407 2°54.658 295.4 2.9 328 13.5
2005-07-19 10:12:42 51°16.41 2°54.656 295.4 2.9 328 13.5
2005-07-19 10:12:47 51°16.414 2°54.653 295.3 -999 -999 13.6
2005-07-19 10:12:52 51°16.417 2°54.65 295.2 2.7 334 13.7
2005-07-19 10:12:57 51°16.421 2°54.647 295 2.5 335 13.7
2005-07-19 10:13:02 51°16.424 2°54.645 295.1 2.7 334 13.8
2005-07-19 10:13:07 51°16.427 2°54.643 295.4 2.5 335 13.8
2005-07-19 10:13:12 51°16.431 2°54.64 295.3 2.5 337 13.8
2005-07-19 10:13:17 51°16.434 2°54.638 295.2 2.5 337 13.7
2005-07-19 10:13:22 51°16.437 2°54.636 294.8 2.6 336 13.7
2005-07-19 10:13:27 51°16.44 2°54.633 294.6 2.6 335 13.6
2005-07-19 10:13:32 51°16.443 2°54.631 294.6 2.5 337 13.7
2005-07-19 10:13:37 51°16.447 2°54.629 294.6 2.6 337 13.8
2005-07-19 10:13:42 51°16.45 2°54.627 294.4 2.6 337 13.8
2005-07-19 10:13:47 51°16.453 2°54.625 294.6 2.5 336 13.9
2005-07-19 10:13:52 51°16.456 2°54.622 294.5 2.5 336 13.9
2005-07-19 10:13:57 51°16.459 2°54.62 294.3 2.5 336 13.8
2005-07-19 10:14:01 51°16.462 2°54.618 294.3 2.5 337 13.8
2005-07-19 10:14:08 51°16.466 2°54.615 294.3 2.5 337 14.1
2005-07-19 10:14:12 51°16.469 2°54.614 294.5 2.5 338 14.1
2005-07-19 10:14:17 51°16.472 2°54.612 294.5 2.5 338 14.1
2005-07-19 10:14:22 51°16.475 2°54.61 294.9 2.5 338 14
2005-07-19 10:14:27 51°16.479 2°54.608 294.8 2.5 338 13.9
2005-07-19 10:14:32 51°16.482 2°54.606 294.7 2.5 339 14
2005-07-19 10:14:37 51°16.485 2°54.604 294.8 2.5 339 14
2005-07-19 10:14:42 51°16.488 2°54.602 294.9 2.5 339 14.1
2005-07-19 10:14:47 51°16.491 2°54.6 294.9 2.6 337 14.1
2005-07-19 10:14:52 51°16.495 2°54.598 295.1 2.6 339 14
2005-07-19 10:14:57 51°16.498 2°54.596 294.6 2.6 339 13.9
2005-07-19 10:15:02 51°16.501 2°54.594 294.2 2.6 339 14
2005-07-19 10:15:07 51°16.504 2°54.592 294.3 2.5 340 14
2005-07-19 10:15:12 51°16.507 2°54.591 294.5 2.5 338 14.1
2005-07-19 10:15:17 51°16.51 2°54.588 294.6 2.4 338 14.1
2005-07-19 10:15:21 51°16.513 2°54.587 294.4 2.4 338 14.1
2005-07-19 10:15:27 51°16.517 2°54.585 294 2.5 337 14.2
2005-07-19 10:15:32 51°16.519 2°54.583 293.9 2.3 339 14.2
2005-07-19 10:15:37 51°16.523 2°54.581 293.7 2.4 335 14.2
2005-07-19 10:15:42 51°16.526 2°54.578 293.3 2.4 335 14.2
2005-07-19 10:15:48 51°16.529 2°54.576 293.2 2.4 337 14
2005-07-19 10:15:52 51°16.531 2°54.575 292.8 2.3 337 13.9
2005-07-19 10:15:57 51°16.535 2°54.572 292.4 2.3 337 13.9
2005-07-19 10:16:02 51°16.537 2°54.571 292 2.1 340 13.9
2005-07-19 10:16:07 51°16.54 2°54.569 292.2 2.2 340 14.1
2005-07-19 10:16:12 51°16.543 2°54.568 292.5 2.2 340 14
2005-07-19 10:16:17 51°16.546 2°54.567 292.7 2.2 344 14.1
2005-07-19 10:16:22 51°16.548 2°54.566 292.9 2.2 344 14.1
2005-07-19 10:16:28 51°16.552 2°54.564 293.2 2.3 343 14
2005-07-19 10:16:32 51°16.554 2°54.563 293.6 2.1 344 14
2005-07-19 10:16:37 51°16.558 2°54.562 294.1 2.2 347 14
2005-07-19 10:16:41 51°16.56 2°54.561 294.6 2.2 347 13.9
2005-07-19 10:16:47 51°16.564 2°54.559 295.1 2.3 346 14.1
2005-07-19 10:16:52 51°16.567 2°54.558 295.5 2.3 346 14.1
2005-07-19 10:16:57 51°16.57 2°54.557 295.8 2.3 346 14.1
2005-07-19 10:17:02 51°16.573 2°54.557 296.1 2.4 346 14.1
2005-07-19 10:17:07 51°16.576 2°54.555 296.2 2.4 346 14.1
2005-07-19 10:17:12 51°16.579 2°54.554 296 2.3 345 14.1
2005-07-19 10:17:17 51°16.582 2°54.553 295.8 2.2 349 14.2
2005-07-19 10:17:22 51°16.585 2°54.551 295.4 2.2 346 14.1
2005-07-19 10:17:27 51°16.588 2°54.551 294.7 2.2 346 14.2
2005-07-19 10:17:32 51°16.591 2°54.549 294.6 2.2 347 14.1
2005-07-19 10:17:37 51°16.594 2°54.548 293.9 2.1 346 14.2
2005-07-19 10:17:42 51°16.596 2°54.547 293.8 2.1 346 14.2
2005-07-19 10:17:48 51°16.599 2°54.546 293.7 2.1 346 14.2
2005-07-19 10:17:52 51°16.602 2°54.545 293.6 2.1 346 14.2
2005-07-19 10:17:57 51°16.605 2°54.544 293.6 2.1 346 14.1
2005-07-19 10:18:02 51°16.608 2°54.543 293.8 2.2 347 14.1
2005-07-19 10:18:07 51°16.611 2°54.542 294.2 2.2 347 14.2
2005-07-19 10:18:12 51°16.614 2°54.541 294.7 2.2 350 14.2
2005-07-19 10:18:16 51°16.617 2°54.54 295.2 2.2 349 14.2
2005-07-19 10:18:21 51°16.62 2°54.54 295.6 2.3 350 14.1
2005-07-19 10:18:27 51°16.624 2°54.538 296.2 2.2 352 14
2005-07-19 10:18:32 51°16.627 2°54.538 296.8 2.3 349 14
2005-07-19 10:18:37 51°16.63 2°54.537 297.4 2.1 356 14
2005-07-19 10:18:41 51°16.632 2°54.537 297.7 2.2 357 14.1
2005-07-19 10:18:47 51°16.636 2°54.537 298.2 2.2 358 14.2
2005-07-19 10:18:52 51°16.638 2°54.537 298.2 2.2 358 14.1
2005-07-19 10:18:57 51°16.642 2°54.537 298.1 2.1 2 14.1
2005-07-19 10:19:02 51°16.644 2°54.537 298.3 2.1 2 14.2
2005-07-19 10:19:07 51°16.648 2°54.537 298.3 2.3 358 14.2
2005-07-19 10:19:12 51°16.651 2°54.536 298.1 2.3 357 14.2
2005-07-19 10:19:17 51°16.654 2°54.536 298 2.2 357 14.3
2005-07-19 10:19:22 51°16.657 2°54.535 297.7 2.3 354 14.3
2005-07-19 10:19:27 51°16.66 2°54.535 297.3 2.1 355 14.3
2005-07-19 10:19:32 51°16.663 2°54.534 296.7 2.2 354 14.3
2005-07-19 10:19:38 51°16.667 2°54.534 296.1 2.2 354 14.2
2005-07-19 10:19:42 51°16.669 2°54.534 295.6 2.2 352 14.2
2005-07-19 10:19:47 51°16.672 2°54.533 295.3 2.2 354 14.2
2005-07-19 10:19:52 51°16.675 2°54.533 295 2.2 354 14.2
2005-07-19 10:19:57 51°16.678 2°54.532 294.8 2.1 352 14.2
2005-07-19 10:20:01 51°16.68 2°54.531 294.8 2.1 352 14.3
2005-07-19 10:20:08 51°16.684 2°54.53 294.5 2.2 350 14.3
2005-07-19 10:20:12 51°16.687 2°54.529 294.5 2.2 351 14.3
2005-07-19 10:20:17 51°16.69 2°54.528 294.6 2.2 351 14.3
2005-07-19 10:20:22 51°16.693 2°54.527 294.7 2.2 349 14.3
2005-07-19 10:20:28 51°16.696 2°54.526 294.9 2.2 349 14.3
2005-07-19 10:20:32 51°16.699 2°54.525 294.8 2.2 348 14.3
2005-07-19 10:20:37 51°16.702 2°54.525 294.8 2.3 348 14.3
2005-07-19 10:20:41 51°16.704 2°54.524 294.8 2.2 348 14.3
2005-07-19 10:20:47 51°16.708 2°54.522 295.3 2.3 348 14.3
2005-07-19 10:20:52 51°16.711 2°54.522 295.3 2.3 348 14.3
2005-07-19 10:20:57 51°16.714 2°54.521 295.4 2.2 349 14.3
2005-07-19 10:21:01 51°16.716 2°54.52 295.6 2.2 348 14.3
2005-07-19 10:21:07 51°16.72 2°54.518 295.6 2.1 351 14.2
2005-07-19 10:21:12 51°16.723 2°54.518 295.5 2.1 351 14.2
2005-07-19 10:21:17 51°16.726 2°54.517 295.5 2.2 350 14.2
2005-07-19 10:21:22 51°16.729 2°54.516 295.4 2.2 349 14.2
2005-07-19 10:21:27 51°16.732 2°54.516 295.6 2.2 353 14.3
2005-07-19 10:21:32 51°16.734 2°54.516 295.6 2.2 352 14.3
2005-07-19 10:21:37 51°16.738 2°54.515 295.8 2.2 351 14.4
2005-07-19 10:21:42 51°16.741 2°54.514 295.9 2.2 351 14.4
2005-07-19 10:21:47 51°16.744 2°54.513 296.2 2.2 350 14.4
2005-07-19 10:21:52 51°16.747 2°54.512 296.5 2.2 350 14.4
2005-07-19 10:21:57 51°16.75 2°54.511 296.1 2.2 350 14.4
2005-07-19 10:22:02 51°16.753 2°54.51 296.1 2.2 350 14.4
2005-07-19 10:22:07 51°16.756 2°54.51 296 2.3 352 14.4
2005-07-19 10:22:12 51°16.759 2°54.509 296.2 2.3 352 14.4
2005-07-19 10:22:17 51°16.763 2°54.508 296.5 2.3 354 14.2
2005-07-19 10:22:22 51°16.766 2°54.508 296.9 2.3 354 14.3
2005-07-19 10:22:27 51°16.769 2°54.508 297.8 2.3 355 14.3
2005-07-19 10:22:32 51°16.772 2°54.507 298.3 2.4 357 14.3
2005-07-19 10:22:37 51°16.776 2°54.507 299 2.3 356 14.3
2005-07-19 10:22:42 51°16.779 2°54.507 299.3 2.4 355 14.3
2005-07-19 10:22:47 51°16.782 2°54.506 299.6 2.3 358 14.3
2005-07-19 10:22:52 51°16.785 2°54.505 300 2.4 359 14.3
2005-07-19 10:22:57 51°16.789 2°54.505 300.2 2.4 358 14.4
2005-07-19 10:23:02 51°16.792 2°54.506 300.2 2.4 358 14.4
2005-07-19 10:23:08 51°16.796 2°54.506 300 2.4 359 14.3
2005-07-19 10:23:12 51°16.799 2°54.506 300 2.3 359 14.2
2005-07-19 10:23:17 51°16.802 2°54.505 299.8 2.3 359 14.2
2005-07-19 10:23:22 51°16.805 2°54.505 299.5 2.3 359 14.1
2005-07-19 10:23:28 51°16.809 2°54.505 299 2.3 357 14.3
2005-07-19 10:23:32 51°16.811 2°54.505 299.2 2.3 357 14.3
2005-07-19 10:23:37 51°16.815 2°54.504 299.4 2.3 356 14.3
2005-07-19 10:23:42 51°16.817 2°54.504 299.1 2.3 356 14.3
2005-07-19 10:23:47 51°16.821 2°54.503 297.7 2.3 350 14.3
2005-07-19 10:23:52 51°16.823 2°54.502 295.2 2.3 350 14.3
2005-07-19 10:23:57 51°16.826 2°54.499 290.5 2.1 338 14.2
2005-07-19 10:24:02 51°16.828 2°54.498 285.9 1.8 339 14.2
2005-07-19 10:24:07 51°16.83 2°54.496 280.8 1.7 336 14.3
2005-07-19 10:24:12 51°16.831 2°54.494 275.8 1.4 326 14.3
2005-07-19 10:24:17 51°16.832 2°54.493 270.2 1.2 317 14.3
2005-07-19 10:24:22 51°16.832 2°54.49 264.2 1.2 317 14.3
2005-07-19 10:24:27 51°16.832 2°54.488 257.4 1.1 271 14.4
2005-07-19 10:24:32 51°16.831 2°54.486 251.9 1.1 251 14.3
2005-07-19 10:24:37 51°16.83 2°54.484 244.5 1.1 251 14.2
2005-07-19 10:24:42 51°16.828 2°54.483 236.8 1.1 251 14.2
2005-07-19 10:24:48 51°16.826 2°54.483 228.9 1.5 198 14.4
2005-07-19 10:24:52 51°16.823 2°54.483 221.2 1.5 198 14.3
2005-07-19 10:24:57 51°16.818 2°54.483 214.4 2.5 178 14.2
2005-07-19 10:25:02 51°16.812 2°54.482 209.6 3.7 185 14.2
2005-07-19 10:25:07 51°16.804 2°54.481 204.5 4.1 185 14.2
2005-07-19 10:25:12 51°16.797 2°54.479 204.1 5.4 187 14.2
2005-07-19 10:25:17 51°16.788 2°54.475 206.3 6 192 14.3
2005-07-19 10:25:22 51°16.778 2°54.472 207.4 6 192 14.3
2005-07-19 10:25:28 51°16.767 2°54.466 207.2 7.2 194 14.3
2005-07-19 10:25:32 51°16.758 2°54.462 207.8 7.5 195 14.4
2005-07-19 10:25:37 51°16.748 2°54.457 208.8 7.5 195 14.3
2005-07-19 10:25:42 51°16.737 2°54.452 208.5 7.5 195 14.2
2005-07-19 10:25:47 51°16.725 2°54.446 208.5 8.4 198 14.1
2005-07-19 10:25:52 51°16.714 2°54.44 208.4 8.7 198 14.2
2005-07-19 10:25:57 51°16.702 2°54.433 209.5 8.7 199 14.2
2005-07-19 10:26:02 51°16.692 2°54.427 209.4 8.8 200 14.1
2005-07-19 10:26:07 51°16.679 2°54.419 210.6 8.9 199 14.2
2005-07-19 10:26:12 51°16.668 2°54.414 209.7 9.1 199 14.1
2005-07-19 10:26:17 51°16.655 2°54.408 207.5 9.2 197 14.3
2005-07-19 10:26:22 51°16.643 2°54.404 205.4 9.2 197 14.3
2005-07-19 10:26:27 51°16.629 2°54.399 203.8 9.4 194 14.4
2005-07-19 10:26:32 51°16.617 2°54.395 202.5 9.4 191 14.4
2005-07-19 10:26:37 51°16.603 2°54.392 201.1 9.7 189 14.3
2005-07-19 10:26:41 51°16.592 2°54.389 200.1 9.7 189 14.2
2005-07-19 10:26:47 51°16.576 2°54.385 199.5 9.8 188 14.3
2005-07-19 10:26:52 51°16.563 2°54.381 199.4 9.8 188 14.3
2005-07-19 10:26:57 51°16.549 2°54.378 199.5 9.7 190 14.3
2005-07-19 10:27:02 51°16.537 2°54.375 198.6 9.8 186 14.2
2005-07-19 10:27:07 51°16.522 2°54.371 198.6 9.8 186 14.2
2005-07-19 10:27:12 51°16.509 2°54.369 199.4 9.8 190 14.1
2005-07-19 10:27:17 51°16.496 2°54.364 198.8 9.8 191 14.3
2005-07-19 10:27:22 51°16.484 2°54.361 200.7 9.7 193 14.2
2005-07-19 10:27:27 51°16.469 2°54.355 200.6 9.7 193 14.1
2005-07-19 10:27:32 51°16.455 2°54.352 201 9.7 192 14.3
2005-07-19 10:27:37 51°16.443 2°54.347 201.2 9.6 192 14.1
2005-07-19 10:27:42 51°16.432 2°54.344 201.3 9.6 192 14
2005-07-19 10:27:48 51°16.419 2°54.34 201.9 9.6 192 14
2005-07-19 10:27:52 51°16.411 2°54.338 202.4 9.6 192 14
2005-07-19 10:27:57 51°16.401 2°54.334 203.1 7.3 190 14.1
2005-07-19 10:28:02 51°16.392 2°54.331 204.2 6.9 189 14.2
2005-07-19 10:28:07 51°16.383 2°54.329 204.6 6.7 191 13.9
2005-07-19 10:28:12 51°16.375 2°54.328 203.9 6.1 188 14
2005-07-19 10:28:17 51°16.367 2°54.326 203.8 5.8 187 13.9
2005-07-19 10:28:22 51°16.36 2°54.325 203.8 5.8 187 14.2
2005-07-19 10:28:27 51°16.353 2°54.324 204.3 5.1 187 14.1
2005-07-19 10:28:32 51°16.346 2°54.323 204 4.9 183 14
2005-07-19 10:28:37 51°16.34 2°54.322 204.5 4.9 183 14.1
2005-07-19 10:28:42 51°16.335 2°54.322 203.9 4.9 183 14
2005-07-19 10:28:47 51°16.328 2°54.321 205.4 4.4 185 14
2005-07-19 10:28:52 51°16.323 2°54.319 206.6 4.4 185 14.2
2005-07-19 10:28:57 51°16.317 2°54.319 206.8 4.1 184 14.2
2005-07-19 10:29:02 51°16.312 2°54.318 206.6 4 181 14.2
2005-07-19 10:29:07 51°16.306 2°54.319 206.6 3.9 185 14
2005-07-19 10:29:12 51°16.301 2°54.32 205.7 3.8 181 13.9
2005-07-19 10:29:17 51°16.295 2°54.32 205.1 3.9 182 13.8
2005-07-19 10:29:22 51°16.29 2°54.32 203.8 3.9 182 14
2005-07-19 10:29:28 51°16.284 2°54.319 202.9 3.9 177 14
2005-07-19 10:29:32 51°16.279 2°54.32 203.2 3.8 179 14.1
2005-07-19 10:29:37 51°16.275 2°54.319 206.6 3.5 187 14.1
2005-07-19 10:29:41 51°16.272 2°54.318 212.2 3.5 187 14.1
2005-07-19 10:29:47 51°16.268 2°54.316 217.7 2.4 195 14.2
2005-07-19 10:29:52 51°16.265 2°54.315 221.3 2.4 195 14.2
2005-07-19 10:29:57 51°16.263 2°54.315 223.1 1.8 188 14.3
2005-07-19 10:30:02 51°16.261 2°54.315 223.8 1.5 182 14.3
2005-07-19 10:30:07 51°16.26 2°54.316 224.1 1.2 172 14.3
2005-07-19 10:30:12 51°16.259 2°54.317 224.7 1 144 14.2
2005-07-19 10:30:17 51°16.259 2°54.319 225.5 0.8 134 14.1
2005-07-19 10:30:21 51°16.258 2°54.321 226.3 0.8 134 14.2
2005-07-19 10:30:28 51°16.258 2°54.324 227.9 1.1 106 14.1
2005-07-19 10:30:32 51°16.257 2°54.326 229.5 1 105 14.1
2005-07-19 10:30:37 51°16.257 2°54.328 230.8 1 105 14.2
2005-07-19 10:30:42 51°16.258 2°54.331 231.6 1.1 95 14.2
2005-07-19 10:30:47 51°16.258 2°54.334 232.4 1.3 90 14.1
2005-07-19 10:30:52 51°16.258 2°54.337 232.9 1.3 89 14.1
2005-07-19 10:30:57 51°16.258 2°54.34 233.2 1.3 82 14.1
2005-07-19 10:31:02 51°16.258 2°54.343 233.5 1.3 79 14
2005-07-19 10:31:07 51°16.259 2°54.346 233.3 1.4 82 14.1
2005-07-19 10:31:12 51°16.259 2°54.349 233.2 1.4 85 14.2
2005-07-19 10:31:17 51°16.259 2°54.353 233.4 1.5 79 14.1
2005-07-19 10:31:22 51°16.26 2°54.356 233.7 1.5 79 14.1
2005-07-19 10:31:28 51°16.26 2°54.36 233.6 1.6 74 14.2
2005-07-19 10:31:32 51°16.261 2°54.363 233.3 1.6 77 14.1
2005-07-19 10:31:37 51°16.261 2°54.367 232.8 1.6 77 14.1
2005-07-19 10:31:42 51°16.262 2°54.371 232.1 1.6 77 14.1
2005-07-19 10:31:48 51°16.263 2°54.375 231.5 1.8 77 14.1
2005-07-19 10:31:52 51°16.263 2°54.378 231.1 1.8 77 14.2
2005-07-19 10:31:57 51°16.264 2°54.384 230.9 2 74 14.2
2005-07-19 10:32:02 51°16.265 2°54.387 230.3 2.1 74 14.1
2005-07-19 10:32:07 51°16.266 2°54.392 228.8 2 75 14.1
2005-07-19 10:32:12 51°16.266 2°54.397 227.5 2.2 73 14
2005-07-19 10:32:17 51°16.267 2°54.402 225.6 2.1 73 14
2005-07-19 10:32:22 51°16.268 2°54.407 223.6 2.1 73 14
2005-07-19 10:32:28 51°16.269 2°54.412 221.5 2.3 71 14.1
2005-07-19 10:32:32 51°16.27 2°54.417 219.6 2.3 74 14.1
2005-07-19 10:32:37 51°16.271 2°54.422 217.7 2.3 74 14.1
2005-07-19 10:32:42 51°16.272 2°54.426 215.5 2.3 74 14.1
2005-07-19 10:32:47 51°16.273 2°54.432 213.3 2.4 71 14.1
2005-07-19 10:32:52 51°16.274 2°54.437 211 2.5 71 14.1
2005-07-19 10:32:57 51°16.276 2°54.442 208.3 2.5 69 14.1
2005-07-19 10:33:01 51°16.277 2°54.446 205.6 2.5 68 14.1
2005-07-19 10:33:07 51°16.278 2°54.453 203.2 2.4 69 14
2005-07-19 10:33:12 51°16.28 2°54.458 200.8 2.5 69 14.1
2005-07-19 10:33:17 51°16.281 2°54.463 198.4 2.6 70 14
2005-07-19 10:33:21 51°16.282 2°54.467 195.7 2.5 68 14
2005-07-19 10:33:27 51°16.283 2°54.473 193.7 2.6 69 14
2005-07-19 10:33:32 51°16.285 2°54.477 190.9 2.5 68 14.1
2005-07-19 10:33:37 51°16.286 2°54.482 189.7 2.4 66 14.2
2005-07-19 10:33:42 51°16.287 2°54.487 187.8 2.5 68 14.3
2005-07-19 10:33:47 51°16.289 2°54.492 185.9 2.4 67 14.3
2005-07-19 10:33:52 51°16.29 2°54.497 184.2 2.6 66 14.3
2005-07-19 10:33:57 51°16.292 2°54.502 182.4 2.4 66 14.2
2005-07-19 10:34:02 51°16.293 2°54.507 180.9 2.4 66 14.1
2005-07-19 10:34:07 51°16.295 2°54.512 178.9 2.4 66 14.1
2005-07-19 10:34:12 51°16.296 2°54.516 177.1 2.6 65 14.1
2005-07-19 10:34:17 51°16.297 2°54.522 175.6 2.3 66 14.1
2005-07-19 10:34:21 51°16.299 2°54.527 173.7 2.8 65 14
2005-07-19 10:34:28 51°16.301 2°54.533 171.8 2.4 65 13.9
2005-07-19 10:34:32 51°16.302 2°54.537 170.3 2.5 65 13.9
2005-07-19 10:34:37 51°16.303 2°54.542 168.8 2.5 63 14